Time;durP1;ratioP1;P1;durP2;ratioP2;P2;SDS_P1;SDS_P2;PMS_P1;PMS_P2;Temp;Humidity;BMP_temperature;BMP_pressure;BME280_temperature;BME280_humidity;BME280_pressure;Samples;Min_cycle;Max_cycle;Signal;HPM_P1;HPM_P2
2021/03/21 00:00:43;;;;;;;12.58;7.00;;;;;;;0.93;61.56;100704.55;1788244;78;21191;-60
2021/03/21 00:03:11;;;;;;;14.80;7.40;;;;;;;0.91;61.63;100704.59;1764281;79;21524;-59
2021/03/21 00:05:39;;;;;;;13.48;7.42;;;;;;;0.87;61.66;100697.81;1783012;78;21642;-58
2021/03/21 00:08:20;;;;;;;13.10;6.60;;;;;;;0.85;61.68;100695.73;1777762;79;21252;-59
2021/03/21 00:11:04;;;;;;;14.58;7.28;;;;;;;0.87;61.66;100695.69;1782878;78;21121;-59
2021/03/21 00:13:31;;;;;;;13.20;6.78;;;;;;;0.85;61.72;100693.60;1828626;77;21100;-59
2021/03/21 00:15:59;;;;;;;13.35;7.22;;;;;;;0.84;61.65;100689.30;1767095;78;21631;-59
2021/03/21 00:18:32;;;;;;;12.63;6.85;;;;;;;0.81;61.74;100686.39;1825533;77;21627;-59
2021/03/21 00:21:02;;;;;;;14.35;6.62;;;;;;;0.83;61.90;100687.17;1787207;78;21156;-60
2021/03/21 00:23:31;;;;;;;13.32;7.03;;;;;;;0.88;61.85;100687.86;1781780;79;21369;-60
2021/03/21 00:25:59;;;;;;;12.43;7.50;;;;;;;0.93;61.75;100688.55;1795385;77;21187;-60
2021/03/21 00:28:30;;;;;;;16.00;8.13;;;;;;;0.98;61.63;100688.39;1828069;77;21149;-60
2021/03/21 00:30:59;;;;;;;14.43;7.87;;;;;;;1.01;61.58;100688.71;1796387;78;21255;-59
2021/03/21 00:33:31;;;;;;;13.28;6.42;;;;;;;1.02;61.53;100686.53;1794050;78;21236;-60
2021/03/21 00:35:58;;;;;;;14.50;6.85;;;;;;;0.99;61.38;100685.34;1807728;78;21194;-60
2021/03/21 00:38:46;;;;;;;13.20;6.47;;;;;;;0.90;61.38;100689.94;1804528;78;21198;-60
2021/03/21 00:41:16;;;;;;;12.00;6.85;;;;;;;0.80;61.61;100680.80;1803156;78;21136;-60
2021/03/21 00:43:44;;;;;;;12.43;5.83;;;;;;;0.77;61.70;100678.31;1790911;77;21746;-60
2021/03/21 00:46:12;;;;;;;11.08;6.37;;;;;;;0.73;61.80;100678.88;1802679;78;21151;-60
2021/03/21 00:48:42;;;;;;;13.32;6.45;;;;;;;0.69;61.89;100681.19;1820591;77;21144;-60
2021/03/21 00:51:11;;;;;;;13.32;6.08;;;;;;;0.62;62.05;100671.91;1825044;77;21226;-60
2021/03/21 00:53:39;;;;;;;13.05;6.08;;;;;;;0.56;62.24;100674.73;1806483;77;21179;-60
2021/03/21 00:56:09;;;;;;;10.25;5.60;;;;;;;0.51;62.38;100670.98;1768079;78;21176;-60
2021/03/21 00:58:38;;;;;;;11.97;6.42;;;;;;;0.45;62.54;100672.94;1774563;79;21548;-60
2021/03/21 01:01:06;;;;;;;14.80;6.53;;;;;;;0.38;62.67;100674.05;1834194;76;21176;-61
2021/03/21 01:03:34;;;;;;;10.35;6.37;;;;;;;0.34;62.77;100672.84;1824799;77;21188;-61
2021/03/21 01:06:06;;;;;;;10.45;5.50;;;;;;;0.32;62.78;100678.96;1828776;77;21574;-60
2021/03/21 01:08:37;;;;;;;11.05;6.05;;;;;;;0.28;62.90;100672.20;1836140;77;21137;-60
2021/03/21 01:11:16;;;;;;;16.60;8.28;;;;;;;0.21;63.11;100665.09;1828962;77;21092;-59
2021/03/21 01:13:44;;;;;;;11.15;5.83;;;;;;;0.15;63.21;100662.27;1805176;78;21215;-60
2021/03/21 01:16:25;;;;;;;11.95;6.37;;;;;;;0.12;63.39;100658.93;1806241;78;21179;-60
2021/03/21 01:18:53;;;;;;;9.88;5.65;;;;;;;0.10;63.44;100659.41;1792836;78;21149;-60
2021/03/21 01:21:23;;;;;;;11.57;6.50;;;;;;;0.04;63.58;100658.33;1806626;77;21496;-60
2021/03/21 01:23:51;;;;;;;13.43;7.08;;;;;;;0.05;63.62;100665.17;1811550;78;21131;-60
2021/03/21 01:26:20;;;;;;;12.93;6.30;;;;;;;0.04;63.66;100668.22;1771975;78;21262;-60
2021/03/21 01:28:49;;;;;;;11.18;5.85;;;;;;;0.02;63.68;100668.72;1804160;78;21183;-60
2021/03/21 01:31:20;;;;;;;10.78;5.30;;;;;;;-0.01;63.73;100667.06;1804296;78;21124;-60
2021/03/21 01:33:48;;;;;;;10.78;5.97;;;;;;;-0.03;63.76;100674.03;1804233;78;21155;-60
2021/03/21 01:36:43;;;;;;;9.78;4.67;;;;;;;-0.04;63.81;100676.66;1739753;80;21145;-60
2021/03/21 01:39:22;;;;;;;13.80;5.55;;;;;;;-0.08;63.87;100668.16;1773917;80;21190;-60
2021/03/21 01:41:57;;;;;;;9.48;5.37;;;;;;;-0.05;63.89;100664.61;1748551;80;21203;-60
2021/03/21 01:44:25;;;;;;;10.08;5.90;;;;;;;-0.06;63.95;100660.36;1776995;80;21140;-60
2021/03/21 01:47:01;;;;;;;12.18;5.67;;;;;;;-0.06;64.05;100660.36;1773528;80;21203;-60
2021/03/21 01:49:36;;;;;;;9.08;4.92;;;;;;;-0.07;64.28;100654.34;1753006;80;21164;-61
2021/03/21 01:52:06;;;;;;;9.50;6.10;;;;;;;-0.05;64.31;100659.44;1774893;80;22263;-60
2021/03/21 01:54:34;;;;;;;10.78;5.37;;;;;;;-0.05;64.30;100659.44;1745182;80;21175;-60
2021/03/21 01:57:03;;;;;;;9.33;5.25;;;;;;;-0.06;64.40;100662.48;1729394;80;21480;-61
2021/03/21 01:59:32;;;;;;;9.25;5.85;;;;;;;-0.07;64.43;100649.59;1767468;78;21178;-60
2021/03/21 02:02:02;;;;;;;9.00;5.55;;;;;;;-0.10;64.56;100656.16;1744829;80;21152;-60
2021/03/21 02:04:31;;;;;;;9.95;5.58;;;;;;;-0.13;64.62;100656.28;1765710;80;21352;-60
2021/03/21 02:07:26;;;;;;;10.35;5.58;;;;;;;-0.14;64.65;100651.98;1777462;80;21708;-60
2021/03/21 02:10:17;;;;;;;11.70;5.83;;;;;;;-0.15;64.75;100651.58;1745422;80;21152;-60
2021/03/21 02:13:09;;;;;;;10.80;6.40;;;;;;;-0.19;64.82;100650.37;1773924;80;21631;-60
2021/03/21 02:15:45;;;;;;;10.72;5.30;;;;;;;-0.20;64.90;100646.11;1772783;80;21132;-61
2021/03/21 02:18:40;;;;;;;14.00;6.45;;;;;;;-0.19;64.92;100647.78;1754276;80;21364;-61
2021/03/21 02:21:43;;;;;;;9.55;5.40;;;;;;;-0.20;64.96;100649.99;1746575;80;21561;-60
2021/03/21 02:24:21;;;;;;;10.88;6.17;;;;;;;-0.22;64.99;100641.86;1798100;77;21144;-60
2021/03/21 02:27:40;;;;;;;11.43;5.75;;;;;;;-0.24;65.05;100641.91;1794896;77;21187;-61
2021/03/21 02:30:16;;;;;;;8.65;4.92;;;;;;;-0.24;65.06;100643.20;1797678;77;21123;-61
2021/03/21 02:32:54;;;;;;;11.30;5.90;;;;;;;-0.27;64.96;100640.74;1768645;79;21207;-61
2021/03/21 02:35:52;;;;;;;10.43;5.58;;;;;;;-0.31;65.07;100637.00;1775034;79;21237;-61
2021/03/21 02:38:54;;;;;;;10.93;4.85;;;;;;;-0.34;65.09;100638.38;1802178;77;21618;-61
2021/03/21 02:41:32;;;;;;;13.90;6.22;;;;;;;-0.34;65.05;100636.63;1721748;82;21238;-61
2021/03/21 02:54:39;;;;;;;9.68;5.12;;;;;;;-0.51;65.42;100615.63;1835165;75;22699;-61
2021/03/21 02:57:09;;;;;;;8.88;5.45;;;;;;;-0.55;65.44;100622.63;1779317;79;21618;-62
2021/03/21 02:59:40;;;;;;;9.40;5.00;;;;;;;-0.52;65.40;100612.63;1796001;79;23065;-62
2021/03/21 03:02:11;;;;;;;8.38;4.85;;;;;;;-0.47;65.34;100615.92;1801035;77;21041;-62
2021/03/21 03:04:47;;;;;;;9.85;5.15;;;;;;;-0.45;65.20;100616.74;1764876;78;21179;-62
2021/03/21 03:07:35;;;;;;;11.60;5.10;;;;;;;-0.43;65.16;100611.07;1796025;78;21166;-62
2021/03/21 03:10:20;;;;;;;8.80;4.55;;;;;;;-0.40;65.03;100616.16;1800410;79;21551;-62
2021/03/21 03:13:19;;;;;;;8.18;4.40;;;;;;;-0.34;65.02;100613.81;1874595;74;22735;-62
2021/03/21 03:15:49;;;;;;;9.55;5.37;;;;;;;-0.36;65.01;100615.15;1761466;79;21604;-62
2021/03/21 03:18:34;;;;;;;8.68;4.00;;;;;;;-0.34;65.04;100620.28;1749743;80;21172;-62
2021/03/21 03:21:30;;;;;;;8.30;4.43;;;;;;;-0.34;64.91;100617.69;1805641;78;21057;-61
2021/03/21 03:24:17;;;;;;;7.58;3.87;;;;;;;-0.30;64.79;100615.39;1780563;79;21173;-62
2021/03/21 03:27:15;;;;;;;8.65;4.05;;;;;;;-0.30;64.77;100608.50;1806913;77;21123;-63
2021/03/21 03:29:54;;;;;;;8.60;4.15;;;;;;;-0.34;64.71;100612.06;1762645;78;21195;-63
2021/03/21 03:32:22;;;;;;;8.65;3.80;;;;;;;-0.34;64.73;100611.23;1769174;79;21292;-63
2021/03/21 03:34:56;;;;;;;8.35;4.28;;;;;;;-0.36;64.76;100606.56;1777369;80;21003;-64
2021/03/21 03:37:25;;;;;;;8.70;3.87;;;;;;;-0.39;64.80;100604.89;1805695;78;21093;-63
2021/03/21 03:39:53;;;;;;;12.18;4.03;;;;;;;-0.39;64.77;100601.02;1783407;79;21204;-63
2021/03/21 03:42:46;;;;;;;9.35;4.55;;;;;;;-0.40;64.83;100605.81;1748382;80;21211;-61
2021/03/21 03:45:34;;;;;;;8.33;4.00;;;;;;;-0.40;64.78;100608.39;1747586;80;21980;-62
2021/03/21 03:48:41;;;;;;;8.10;3.20;;;;;;;-0.40;64.82;100604.52;1748065;80;21578;-62
2021/03/21 03:51:20;;;;;;;9.20;4.08;;;;;;;-0.43;64.86;100604.61;1753998;80;21168;-56
2021/03/21 03:54:10;;;;;;;10.20;3.70;;;;;;;-0.46;64.85;100599.53;1750480;79;21158;-56
2021/03/21 03:56:48;;;;;;;7.00;3.98;;;;;;;-0.53;65.00;100597.58;1764272;79;21179;-56
2021/03/21 03:59:48;;;;;;;;;;;;;;;-0.52;65.10;100597.98;1781367;79;21156;-56
2021/03/21 04:02:27;;;;;;;8.00;4.03;;;;;;;-0.52;65.09;100593.24;1781975;79;20442;-56
2021/03/21 04:05:02;;;;;;;8.70;4.42;;;;;;;-0.59;65.13;100596.03;1778320;79;21140;-55
2021/03/21 04:07:44;;;;;;;8.08;4.00;;;;;;;-0.62;65.14;100585.78;1774293;78;21171;-56
2021/03/21 04:10:19;;;;;;;7.33;3.45;;;;;;;-0.62;65.19;100590.95;1777218;79;21171;-55
2021/03/21 04:13:10;;;;;;;7.97;4.15;;;;;;;-0.64;65.23;100586.28;1763071;79;21610;-56
2021/03/21 04:15:42;;;;;;;9.85;4.17;;;;;;;-0.64;65.27;100588.88;1771588;80;21184;-56
2021/03/21 04:18:28;;;;;;;10.05;4.85;;;;;;;-0.64;65.24;100588.00;1742248;80;21741;-55
2021/03/21 04:21:17;;;;;;;8.80;4.20;;;;;;;-0.64;65.29;100584.12;1761719;80;21259;-56
2021/03/21 04:23:50;;;;;;;7.95;4.28;;;;;;;-0.59;65.18;100592.58;1764538;79;21196;-57
2021/03/21 04:26:26;;;;;;;9.38;4.03;;;;;;;-0.58;65.12;100591.70;1741170;79;21763;-56
2021/03/21 04:28:59;;;;;;;7.80;3.87;;;;;;;-0.58;65.08;100593.00;1768621;79;21667;-56
2021/03/21 04:31:27;;;;;;;7.62;3.67;;;;;;;-0.60;65.11;100590.45;1770325;79;21239;-56
2021/03/21 04:33:58;;;;;;;8.65;3.37;;;;;;;-0.52;65.08;100593.24;1740022;79;21563;-56
2021/03/21 04:36:31;;;;;;;6.22;3.45;;;;;;;-0.49;65.05;100593.98;1765289;79;21183;-56
2021/03/21 04:39:10;;;;;;;9.10;4.40;;;;;;;-0.44;64.99;100596.44;1738701;80;22193;-56
2021/03/21 04:41:51;;;;;;;8.80;4.08;;;;;;;-0.42;64.85;100593.36;1740332;80;21227;-56
2021/03/21 04:44:35;;;;;;;7.78;3.58;;;;;;;-0.41;64.73;100588.59;1766221;80;21173;-56
2021/03/21 04:47:15;;;;;;;6.67;3.75;;;;;;;-0.38;64.76;100591.09;1742407;79;21160;-56
2021/03/21 04:49:44;;;;;;;8.20;4.42;;;;;;;-0.33;64.66;100582.73;1768249;80;21203;-57
2021/03/21 04:52:23;;;;;;;15.25;4.55;;;;;;;-0.29;64.63;100583.02;1736434;80;21188;-54
2021/03/21 04:54:50;;;;;;;7.45;4.15;;;;;;;-0.26;64.58;100583.39;1764484;79;21517;-55
2021/03/21 04:57:42;;;;;;;8.88;4.97;;;;;;;-0.23;64.44;100589.30;1762967;79;21639;-55
2021/03/21 05:00:36;;;;;;;7.67;4.53;;;;;;;-0.16;64.39;100587.83;1762155;79;21745;-55
2021/03/21 05:03:27;;;;;;;12.28;5.35;;;;;;;-0.12;64.43;100581.64;1765735;79;21223;-55
2021/03/21 05:05:59;;;;;;;8.08;4.00;;;;;;;-0.09;64.43;100584.13;1734356;79;22930;-56
2021/03/21 05:08:31;;;;;;;10.63;5.40;;;;;;;-0.07;64.40;100583.63;1769161;79;21208;-55
2021/03/21 05:11:02;;;;;;;8.13;4.35;;;;;;;-0.03;64.26;100586.08;1746902;80;21442;-56
2021/03/21 05:13:41;;;;;;;9.70;3.80;;;;;;;0.03;64.10;100583.72;1741351;80;21198;-56
2021/03/21 05:16:33;;;;;;;8.88;4.70;;;;;;;0.07;63.83;100578.86;1774192;78;21439;-58
2021/03/21 05:19:19;;;;;;;7.20;4.45;;;;;;;0.09;63.91;100586.58;1770715;77;21375;-56
2021/03/21 05:21:52;;;;;;;10.47;4.93;;;;;;;0.08;63.81;100582.28;1786877;78;21563;-57
2021/03/21 05:24:35;;;;;;;7.75;4.45;;;;;;;0.13;63.85;100588.15;1733069;80;21211;-56
2021/03/21 05:27:17;;;;;;;9.95;5.47;;;;;;;0.16;63.82;100586.76;1774906;78;21186;-57
2021/03/21 05:30:04;;;;;;;8.90;5.12;;;;;;;0.24;63.74;100588.64;1787295;79;21174;-57
2021/03/21 05:32:32;;;;;;;14.53;5.30;;;;;;;0.31;63.51;100584.94;1772961;78;21598;-58
2021/03/21 05:35:00;;;;;;;10.25;5.17;;;;;;;0.40;63.27;100586.81;1785435;77;21240;-57
2021/03/21 05:38:10;;;;;;;12.95;4.97;;;;;;;0.43;63.20;100586.26;1784846;77;21639;-57
2021/03/21 05:41:19;;;;;;;9.75;5.33;;;;;;;0.49;63.37;100583.47;1768087;79;22117;-57
2021/03/21 05:44:13;;;;;;;10.32;4.78;;;;;;;0.64;63.24;100577.33;1785140;78;21725;-57
2021/03/21 05:46:52;;;;;;;8.65;4.58;;;;;;;0.76;63.05;100576.91;1795580;78;21629;-57
2021/03/21 05:49:45;;;;;;;7.25;4.10;;;;;;;0.83;62.38;100577.08;1794523;78;21187;-57
2021/03/21 05:52:34;;;;;;;8.58;4.25;;;;;;;0.89;61.31;100583.34;1786835;78;21551;-57
2021/03/21 05:55:46;;;;;;;9.05;5.20;;;;;;;0.93;61.11;100586.66;1792458;78;21130;-57
2021/03/21 05:58:42;;;;;;;8.83;4.50;;;;;;;0.93;61.13;100593.97;1759663;78;21583;-58
2021/03/21 06:01:52;;;;;;;8.55;4.75;;;;;;;0.92;60.63;100593.59;1753235;80;21556;-57
2021/03/21 06:04:38;;;;;;;10.00;3.98;;;;;;;0.94;60.88;100588.33;1764676;78;21213;-56
2021/03/21 06:07:32;;;;;;;12.82;4.20;;;;;;;1.01;59.85;100581.17;1809473;77;21629;-56
2021/03/21 06:10:10;;;;;;;8.30;4.22;;;;;;;1.07;60.19;100586.97;1807134;77;21200;-58
2021/03/21 06:13:07;;;;;;;;;;;;;;;1.13;60.00;100585.91;1769450;80;21145;-58
2021/03/21 06:16:03;;;;;;;8.65;4.72;;;;;;;1.16;59.39;100576.73;1819348;77;23217;-57
2021/03/21 06:18:52;;;;;;;8.73;4.42;;;;;;;1.13;59.61;100575.98;1781337;78;28306;-57
2021/03/21 06:22:01;;;;;;;10.53;4.97;;;;;;;1.15;59.42;100571.14;1773571;79;21605;-57
2021/03/21 06:25:19;;;;;;;9.35;4.65;;;;;;;1.20;59.21;100570.52;1808603;78;21171;-56
2021/03/21 06:28:23;;;;;;;12.18;6.40;;;;;;;1.23;59.46;100566.98;1662986;84;21179;-56
2021/03/21 06:31:13;;;;;;;9.53;4.78;;;;;;;1.28;59.25;100571.53;1835277;75;21360;-56
2021/03/21 06:34:26;;;;;;;10.68;5.15;;;;;;;1.35;58.91;100570.84;1804935;75;21151;-56
2021/03/21 06:37:36;;;;;;;9.35;5.28;;;;;;;1.35;58.88;100561.77;1841184;75;21166;-56
2021/03/21 06:40:48;;;;;;;11.08;5.72;;;;;;;1.30;58.38;100558.05;1849164;75;21143;-56
2021/03/21 06:43:30;;;;;;;12.35;6.33;;;;;;;1.25;58.81;100566.46;1839848;77;21195;-56
2021/03/21 06:46:11;;;;;;;11.15;6.17;;;;;;;1.26;59.13;100545.66;1846854;75;21253;-56
2021/03/21 06:48:54;;;;;;;15.50;7.65;;;;;;;1.31;59.32;100549.35;1786177;78;21234;-58
2021/03/21 06:51:56;;;;;;;11.88;6.87;;;;;;;1.39;58.75;100543.88;1752466;78;21180;-57
2021/03/21 06:55:09;;;;;;;14.60;7.35;;;;;;;1.44;58.53;100541.95;1779271;78;21208;-57
2021/03/21 06:58:18;;;;;;;12.98;7.03;;;;;;;1.50;58.46;100535.23;1750608;80;21218;-57
2021/03/21 07:01:14;;;;;;;13.53;7.70;;;;;;;1.54;57.55;100532.06;1807550;77;21269;-56
2021/03/21 07:05:15;;;;;;;12.13;7.20;;;;;;;1.63;58.26;100521.30;1751147;78;22798;-62
2021/03/21 07:08:30;;;;;;;14.30;7.83;;;;;;;1.59;57.77;100528.36;1729939;82;21610;-58
2021/03/21 07:11:34;;;;;;;11.85;7.40;;;;;;;1.61;57.78;100533.03;1717492;81;21370;-59
2021/03/21 07:14:41;;;;;;;12.70;8.00;;;;;;;1.55;57.61;100537.65;1646277;85;21263;-61
2021/03/21 07:17:52;;;;;;;14.25;8.00;;;;;;;1.52;57.76;100536.01;1721752;81;21795;-61
2021/03/21 07:20:38;;;;;;;12.80;7.75;;;;;;;1.47;57.85;100521.09;1730235;82;21180;-60
2021/03/21 07:23:34;;;;;;;16.75;9.20;;;;;;;1.48;57.77;100511.12;1702249;82;21224;-61
2021/03/21 07:26:23;;;;;;;16.90;9.65;;;;;;;1.52;57.46;100504.89;1720587;82;21286;-60
2021/03/21 07:29:33;;;;;;;14.28;7.20;;;;;;;1.53;56.58;100506.59;1673938;83;22057;-63
2021/03/21 07:32:51;;;;;;;13.75;8.25;;;;;;;1.51;56.81;100498.47;1724559;82;21470;-60
2021/03/21 07:35:55;;;;;;;14.80;8.20;;;;;;;1.55;57.16;100490.97;1732002;82;21215;-60
2021/03/21 07:39:02;;;;;;;11.50;8.18;;;;;;;1.65;57.17;100487.08;1730229;82;21113;-61
2021/03/21 07:41:40;;;;;;;13.25;8.05;;;;;;;1.75;56.98;100487.09;1728388;80;22220;-60
2021/03/21 07:44:26;;;;;;;15.90;8.65;;;;;;;1.81;55.68;100476.43;1731578;81;21251;-59
2021/03/21 07:47:25;;;;;;;;;;;;;;;1.86;55.88;100490.52;1729799;82;21635;-60
2021/03/21 07:50:17;;;;;;;13.68;7.87;;;;;;;1.92;55.67;100456.53;1728505;82;20290;-61
2021/03/21 07:52:58;;;;;;;13.55;8.30;;;;;;;1.88;55.28;100448.47;1709424;82;21187;-60
2021/03/21 07:58:40;;;;;;;15.95;8.70;;;;;;;1.88;53.19;100452.37;1733516;82;21231;-60
2021/03/21 08:01:07;;;;;;;13.30;8.93;;;;;;;1.82;53.31;100453.48;1726664;80;21546;-63
2021/03/21 08:03:59;;;;;;;13.95;8.15;;;;;;;1.76;53.62;100447.25;1722793;82;21204;-62
2021/03/21 08:06:40;;;;;;;12.95;8.58;;;;;;;1.79;53.63;100430.72;1688322;82;21138;-63
2021/03/21 08:09:25;;;;;;;16.35;8.78;;;;;;;1.88;53.31;100425.12;1716807;82;22607;-62
2021/03/21 08:12:24;;;;;;;13.48;7.67;;;;;;;2.02;54.13;100415.45;1714379;81;21213;-61
2021/03/21 08:14:58;;;;;;;13.55;8.28;;;;;;;2.21;53.97;100415.47;1717527;82;21523;-59
2021/03/21 08:17:46;;;;;;;14.63;7.20;;;;;;;2.41;52.93;100414.11;1714146;82;21121;-58
2021/03/21 08:20:25;;;;;;;15.48;8.38;;;;;;;2.51;52.65;100402.02;1715520;82;21164;-57
2021/03/21 08:23:10;;;;;;;13.98;7.95;;;;;;;2.57;53.20;100395.22;1715681;82;21482;-58
2021/03/21 08:25:37;;;;;;;13.10;7.97;;;;;;;2.63;50.53;100401.44;1714436;82;21243;-58
2021/03/21 08:28:05;;;;;;;16.50;7.97;;;;;;;2.60;51.29;100389.42;1716893;82;21255;-58
2021/03/21 08:30:59;;;;;;;13.45;7.55;;;;;;;2.63;51.04;100383.25;1720525;82;21204;-57
2021/03/21 08:33:41;;;;;;;17.10;9.05;;;;;;;2.64;51.05;100390.14;1717748;82;21212;-59
2021/03/21 08:36:27;;;;;;;16.52;8.38;;;;;;;2.63;50.50;100389.75;1719501;82;21259;-58
2021/03/21 08:39:25;;;;;;;14.38;8.75;;;;;;;2.64;50.55;100377.59;1693298;82;21220;-59
2021/03/21 08:41:56;;;;;;;12.28;7.67;;;;;;;2.69;51.03;100369.98;1703601;82;21204;-58
2021/03/21 08:44:36;;;;;;;14.55;8.28;;;;;;;2.83;51.71;100363.28;1715229;82;21207;-59
2021/03/21 08:47:04;;;;;;;14.73;7.67;;;;;;;2.96;50.93;100356.58;1716985;82;21224;-57
2021/03/21 08:49:38;;;;;;;14.00;8.03;;;;;;;3.09;50.07;100351.59;1696906;82;21221;-60
2021/03/21 08:52:10;;;;;;;14.03;7.65;;;;;;;3.14;49.19;100346.58;1720304;82;21672;-59
2021/03/21 08:54:41;;;;;;;10.88;5.85;;;;;;;3.15;49.28;100341.73;1714144;82;21181;-59
2021/03/21 08:57:16;;;;;;;14.20;7.53;;;;;;;3.13;48.54;100346.65;1714962;81;21211;-58
2021/03/21 08:59:45;;;;;;;13.90;8.23;;;;;;;3.18;49.03;100328.19;1670851;82;21204;-59
2021/03/21 09:02:18;;;;;;;14.58;7.90;;;;;;;3.21;48.51;100317.64;1715305;82;21559;-56
2021/03/21 09:05:03;;;;;;;12.60;7.58;;;;;;;3.23;48.80;100313.20;1722815;80;21638;-57
2021/03/21 09:07:33;;;;;;;14.15;7.80;;;;;;;3.29;49.23;100319.40;1728562;82;21161;-56
2021/03/21 09:10:35;;;;;;;12.10;7.15;;;;;;;3.37;47.75;100320.33;1728440;80;21658;-57
2021/03/21 09:13:14;;;;;;;11.75;6.83;;;;;;;3.32;47.41;100308.84;1727814;82;21578;-58
2021/03/21 09:15:48;;;;;;;11.08;6.37;;;;;;;3.31;47.75;100305.41;1728984;82;21729;-59
2021/03/21 09:18:24;;;;;;;13.43;7.62;;;;;;;3.33;46.96;100293.64;1715469;82;21140;-59
2021/03/21 09:21:01;;;;;;;13.25;7.28;;;;;;;3.33;47.48;100299.67;1704533;82;21196;-59
2021/03/21 09:23:47;;;;;;;14.15;6.90;;;;;;;3.39;46.92;100289.87;1732449;82;21191;-59
2021/03/21 09:26:21;;;;;;;12.25;6.83;;;;;;;3.44;47.16;100284.80;1733676;82;21571;-58
2021/03/21 09:28:53;;;;;;;13.72;7.60;;;;;;;3.57;48.01;100296.72;1727565;82;21227;-58
2021/03/21 09:31:21;;;;;;;10.32;5.80;;;;;;;3.73;46.75;100287.63;1739449;82;21911;-59
2021/03/21 09:34:07;;;;;;;14.80;7.62;;;;;;;3.84;46.48;100289.20;1730514;82;21215;-59
2021/03/21 09:36:59;;;;;;;11.35;5.95;;;;;;;3.92;46.37;100283.59;1707914;82;21173;-59
2021/03/21 09:39:30;;;;;;;12.73;6.12;;;;;;;3.98;45.70;100277.20;1719483;82;21230;-58
2021/03/21 09:41:58;;;;;;;16.27;7.10;;;;;;;3.95;42.18;100261.31;1730260;82;21255;-59
2021/03/21 09:44:44;;;;;;;10.48;6.60;;;;;;;3.87;43.78;100263.48;1715206;82;21207;-56
2021/03/21 09:47:29;;;;;;;12.30;6.92;;;;;;;3.82;45.11;100274.14;1694935;82;21266;-57
2021/03/21 09:50:12;;;;;;;11.08;6.25;;;;;;;3.82;43.62;100268.93;1708593;82;21196;-58
2021/03/21 09:52:59;;;;;;;9.63;5.30;;;;;;;3.79;43.31;100257.84;1726783;80;21168;-58
2021/03/21 09:55:51;;;;;;;12.95;6.75;;;;;;;3.82;44.02;100259.82;1720140;82;21686;-58
2021/03/21 09:58:33;;;;;;;10.15;5.87;;;;;;;3.90;44.02;100260.25;1734500;82;21943;-58
2021/03/21 10:01:28;;;;;;;11.60;6.72;;;;;;;3.96;43.44;100250.42;1733139;82;21125;-57
2021/03/21 10:04:05;;;;;;;11.97;6.37;;;;;;;4.01;43.86;100254.45;1727078;82;21172;-58
2021/03/21 10:06:37;;;;;;;11.18;5.75;;;;;;;4.06;44.22;100266.75;1711665;82;21109;-59
2021/03/21 10:09:15;;;;;;;11.88;7.03;;;;;;;4.06;43.87;100259.41;1718141;82;21421;-59
2021/03/21 10:11:46;;;;;;;12.15;7.30;;;;;;;4.07;44.69;100233.77;1715725;82;21180;-59
2021/03/21 10:14:32;;;;;;;12.50;7.30;;;;;;;4.18;44.28;100233.16;1716857;82;21165;-57
2021/03/21 10:17:02;;;;;;;12.05;6.60;;;;;;;4.27;44.01;100230.05;1719501;82;21216;-60
2021/03/21 10:19:51;;;;;;;10.35;5.67;;;;;;;4.37;43.47;100225.99;1697177;82;21224;-56
2021/03/21 10:22:31;;;;;;;8.90;5.50;;;;;;;4.45;42.68;100204.25;1696605;82;21554;-57
2021/03/21 10:25:13;;;;;;;13.75;7.10;;;;;;;4.50;42.44;100207.88;1723136;82;21714;-59
2021/03/21 10:27:49;;;;;;;13.18;5.67;;;;;;;4.52;42.48;100209.92;1702825;82;21236;-57
2021/03/21 10:30:30;;;;;;;11.45;6.33;;;;;;;4.45;42.26;100222.49;1714274;82;26706;-58
2021/03/21 10:33:06;;;;;;;12.58;6.25;;;;;;;4.43;42.17;100208.69;1716058;82;21212;-58
2021/03/21 10:35:48;;;;;;;10.43;5.83;;;;;;;4.40;42.64;100199.73;1713920;82;21470;-57
2021/03/21 10:38:50;;;;;;;10.35;5.37;;;;;;;4.47;42.25;100209.34;1714178;82;21201;-55
2021/03/21 10:41:56;;;;;;;10.95;5.85;;;;;;;4.58;41.84;100203.06;1707217;82;21208;-57
2021/03/21 10:44:41;;;;;;;9.75;5.53;;;;;;;4.63;40.58;100180.17;1717670;82;21126;-57
2021/03/21 10:47:27;;;;;;;8.98;4.90;;;;;;;4.59;41.59;100185.20;1704034;82;21180;-58
2021/03/21 10:50:00;;;;;;;10.70;4.95;;;;;;;4.60;40.95;100184.26;1709092;82;21248;-58
2021/03/21 10:52:40;;;;;;;11.43;6.08;;;;;;;4.67;40.91;100165.19;1718852;82;21133;-57
2021/03/21 10:55:18;;;;;;;8.33;4.95;;;;;;;4.75;40.88;100175.18;1720899;82;21599;-57
2021/03/21 10:58:01;;;;;;;17.87;5.83;;;;;;;4.87;39.93;100173.61;1718640;82;21188;-59
2021/03/21 11:11:37;;;;;;;10.38;5.83;;;;;;;4.76;40.03;100139.07;1791633;78;22810;-56
2021/03/21 11:14:20;;;;;;;10.35;5.47;;;;;;;4.82;39.09;100156.93;1752256;80;21191;-57
2021/03/21 11:17:05;;;;;;;8.95;4.70;;;;;;;4.89;39.01;100163.92;1769488;79;21678;-56
2021/03/21 11:19:37;;;;;;;9.73;5.30;;;;;;;4.91;39.05;100172.05;1767446;80;21132;-58
2021/03/21 11:22:29;;;;;;;9.55;4.92;;;;;;;4.94;39.39;100127.98;1768287;79;21188;-58
2021/03/21 11:24:59;;;;;;;9.43;4.87;;;;;;;5.00;39.46;100127.62;1740803;80;21175;-58
2021/03/21 11:27:31;;;;;;;11.93;5.42;;;;;;;5.09;39.23;100099.66;1720164;83;21615;-58
2021/03/21 11:30:09;;;;;;;11.12;5.45;;;;;;;5.28;39.16;100110.25;1720412;82;21231;-55
2021/03/21 11:32:37;;;;;;;8.55;4.95;;;;;;;5.27;39.46;100129.47;1705927;81;21023;-58
2021/03/21 11:35:26;;;;;;;10.15;5.30;;;;;;;5.27;39.56;100112.52;1721341;81;21167;-57
2021/03/21 11:37:57;;;;;;;9.15;5.20;;;;;;;5.27;39.56;100112.52;1712373;82;21215;-58
2021/03/21 11:40:33;;;;;;;9.93;5.20;;;;;;;5.31;39.42;100092.66;1714260;82;21215;-57
2021/03/21 11:43:21;;;;;;;11.08;5.22;;;;;;;5.38;39.42;100086.12;1713026;82;21643;-57
2021/03/21 11:45:49;;;;;;;12.15;5.60;;;;;;;5.44;39.42;100091.41;1696399;82;21192;-59
2021/03/21 11:48:34;;;;;;;11.30;6.12;;;;;;;5.70;39.30;100087.14;1688510;82;21147;-58
2021/03/21 11:51:04;;;;;;;11.80;5.37;;;;;;;5.70;39.30;100087.14;1700785;82;21194;-58
2021/03/21 11:53:36;;;;;;;10.18;5.67;;;;;;;5.81;40.07;100079.08;1684521;83;21207;-58
2021/03/21 11:56:15;;;;;;;8.93;5.55;;;;;;;5.91;39.23;100077.54;1714712;82;21232;-58
2021/03/21 11:59:06;;;;;;;13.65;5.80;;;;;;;6.14;38.56;100066.44;1711230;82;22479;-57
2021/03/21 12:01:44;;;;;;;14.07;5.80;;;;;;;6.14;38.56;100066.44;1725335;81;21171;-58
2021/03/21 12:04:29;;;;;;;9.48;5.42;;;;;;;6.22;38.35;100054.19;1714556;82;21231;-57
2021/03/21 12:06:59;;;;;;;8.03;4.58;;;;;;;6.28;37.70;100065.98;1709721;81;21181;-58
2021/03/21 12:09:36;;;;;;;10.60;5.40;;;;;;;6.24;37.48;100042.33;1692327;82;21246;-58
2021/03/21 12:12:24;;;;;;;14.40;5.33;;;;;;;6.24;37.48;100042.33;1689119;83;21204;-58
2021/03/21 12:14:52;;;;;;;10.10;5.22;;;;;;;6.28;38.16;100042.47;1689248;83;21383;-58
2021/03/21 12:17:28;;;;;;;10.70;6.17;;;;;;;6.42;37.96;100060.68;1773408;80;21168;-57
2021/03/21 12:20:19;;;;;;;10.15;5.42;;;;;;;6.54;37.60;100038.55;1757246;79;21212;-58
2021/03/21 12:22:49;;;;;;;9.33;5.47;;;;;;;6.58;38.27;100040.02;1758514;79;21188;-58
2021/03/21 12:25:29;;;;;;;11.70;5.60;;;;;;;6.64;38.22;100033.05;1712766;82;21165;-57
2021/03/21 12:28:19;;;;;;;9.43;5.33;;;;;;;6.74;38.02;100034.55;1762807;80;21193;-58
2021/03/21 12:30:52;;;;;;;10.70;5.58;;;;;;;6.85;37.55;100020.27;1771414;80;21112;-57
2021/03/21 12:33:29;;;;;;;9.80;5.90;;;;;;;6.91;37.00;100035.98;1767175;79;21584;-57
2021/03/21 12:36:12;;;;;;;11.40;5.80;;;;;;;6.89;37.12;100025.62;1758550;79;21220;-57
2021/03/21 12:38:47;;;;;;;8.73;4.90;;;;;;;6.85;37.84;100038.09;1763826;80;21639;-58
2021/03/21 12:41:42;;;;;;;11.40;5.62;;;;;;;6.87;37.52;100017.89;1759664;80;21196;-58
2021/03/21 12:44:27;;;;;;;12.25;5.80;;;;;;;6.94;37.19;100020.08;1765568;80;21173;-56
2021/03/21 12:47:15;;;;;;;9.45;5.22;;;;;;;7.01;37.48;100023.92;1685381;83;21224;-57
2021/03/21 12:49:50;;;;;;;8.25;5.12;;;;;;;7.11;37.23;100024.97;1772374;80;21163;-57
2021/03/21 12:52:27;;;;;;;10.45;5.05;;;;;;;7.21;36.86;100021.20;1768080;80;21192;-59
2021/03/21 12:54:54;;;;;;;11.03;5.25;;;;;;;7.12;36.57;100022.70;1764391;80;21168;-57
2021/03/21 12:57:21;;;;;;;7.75;4.37;;;;;;;7.04;36.58;100008.02;1760629;79;21157;-57
2021/03/21 12:59:52;;;;;;;11.05;4.72;;;;;;;7.00;36.73;100007.89;1738899;80;21108;-57